Time;durP1;ratioP1;P1;durP2;ratioP2;P2;SDS_P1;SDS_P2;PMS_P1;PMS_P2;Temp;Humidity;BMP_temperature;BMP_pressure;BME280_temperature;BME280_humidity;BME280_pressure;Samples;Min_cycle;Max_cycle;Signal;HPM_P1;HPM_P2
2021/01/08 00:01:40;;;;;;;1.70;1.60;;;;;;;4.32;100.00;99411.32;1795646;80;20959;-69
2021/01/08 00:04:08;;;;;;;1.13;1.03;;;;;;;4.24;100.00;99422.77;1795827;78;21557;-70
2021/01/08 00:06:36;;;;;;;1.80;1.43;;;;;;;4.18;100.00;99432.73;1795727;79;21003;-69
2021/01/08 00:09:05;;;;;;;1.20;1.20;;;;;;;4.11;100.00;99437.80;1795729;80;21017;-69
2021/01/08 00:11:35;;;;;;;1.23;1.20;;;;;;;4.07;100.00;99443.58;1808384;78;21042;-69
2021/01/08 00:14:03;;;;;;;2.00;1.33;;;;;;;4.02;100.00;99452.52;1807661;79;21552;-69
2021/01/08 00:16:35;;;;;;;1.43;1.00;;;;;;;3.99;100.00;99456.34;1795654;79;20925;-68
2021/01/08 00:19:03;;;;;;;0.53;0.53;;;;;;;3.97;100.00;99472.53;1828342;78;20929;-69
2021/01/08 00:21:36;;;;;;;1.03;1.03;;;;;;;3.94;100.00;99473.31;1795816;80;21000;-69
2021/01/08 00:24:06;;;;;;;1.05;0.78;;;;;;;3.91;100.00;99479.81;1807774;79;21373;-69
2021/01/08 00:26:33;;;;;;;1.33;1.23;;;;;;;3.89;100.00;99481.75;1795896;80;20945;-70
2021/01/08 00:29:02;;;;;;;1.23;1.13;;;;;;;3.88;100.00;99480.55;1807358;79;21002;-69
2021/01/08 00:31:44;;;;;;;1.17;0.63;;;;;;;3.85;100.00;99491.55;1789922;80;20980;-69
2021/01/08 00:34:17;;;;;;;0.60;0.60;;;;;;;3.80;100.00;99502.16;1804664;79;21544;-70
2021/01/08 00:36:50;;;;;;;1.33;1.23;;;;;;;3.76;100.00;99502.61;1790004;80;22139;-69
2021/01/08 00:39:18;;;;;;;0.85;0.78;;;;;;;3.71;100.00;99511.03;1804629;79;20993;-70
2021/01/08 00:41:47;;;;;;;2.00;1.07;;;;;;;3.66;100.00;99515.95;1789865;80;20977;-70
2021/01/08 00:44:15;;;;;;;1.73;1.00;;;;;;;3.62;100.00;99526.59;1810827;79;21041;-69
2021/01/08 00:46:47;;;;;;;0.87;0.80;;;;;;;3.57;100.00;99518.97;1744227;80;21059;-70
2021/01/08 00:49:15;;;;;;;1.37;0.70;;;;;;;3.52;100.00;99519.88;1760924;81;21393;-70
2021/01/08 00:51:43;;;;;;;0.70;0.70;;;;;;;3.50;100.00;99525.02;1750060;82;21564;-69
2021/01/08 00:54:11;;;;;;;1.70;0.77;;;;;;;3.46;100.00;99531.63;1734143;81;20929;-70
2021/01/08 00:56:41;;;;;;;0.70;0.70;;;;;;;3.44;100.00;99538.95;1734157;82;20977;-70
2021/01/08 00:59:15;;;;;;;0.40;0.40;;;;;;;3.38;100.00;99533.17;1730101;82;21490;-70
2021/01/08 01:01:43;;;;;;;0.87;0.87;;;;;;;3.37;100.00;99546.16;1772356;80;21196;-70
2021/01/08 01:04:11;;;;;;;0.67;0.67;;;;;;;3.36;100.00;99545.80;1757287;81;21542;-69
2021/01/08 01:06:40;;;;;;;0.97;0.70;;;;;;;3.36;100.00;99544.46;1757149;81;20960;-70
2021/01/08 01:09:08;;;;;;;0.70;0.70;;;;;;;3.36;100.00;99553.81;1777270;80;21049;-70
2021/01/08 01:11:38;;;;;;;0.70;0.70;;;;;;;3.35;100.00;99549.47;1753564;81;21572;-70
2021/01/08 01:14:05;;;;;;;0.63;0.63;;;;;;;3.37;100.00;99550.67;1740189;82;21089;-70
2021/01/08 01:16:33;;;;;;;0.60;0.60;;;;;;;3.35;100.00;99551.30;1740119;82;20984;-70
2021/01/08 01:19:02;;;;;;;2.67;0.87;;;;;;;3.36;100.00;99552.48;1740149;82;20968;-68
2021/01/08 01:21:30;;;;;;;0.40;0.40;;;;;;;3.36;100.00;99545.80;1761126;80;21055;-68
2021/01/08 01:23:58;;;;;;;0.60;0.60;;;;;;;3.36;100.00;99552.98;1774039;80;21012;-69
2021/01/08 01:26:26;;;;;;;0.50;0.50;;;;;;;3.34;100.00;99549.10;1773972;80;21822;-69
2021/01/08 01:28:54;;;;;;;0.73;0.73;;;;;;;3.33;100.00;99554.11;1773934;80;20955;-69
2021/01/08 01:31:21;;;;;;;1.73;0.83;;;;;;;3.32;100.00;99556.91;1774074;80;21414;-70
2021/01/08 01:33:49;;;;;;;5.13;1.13;;;;;;;3.31;100.00;99549.87;1773965;80;20992;-69
2021/01/08 01:36:17;;;;;;;0.50;0.50;;;;;;;3.30;100.00;99565.06;1774242;79;21549;-69
2021/01/08 01:38:45;;;;;;;0.40;0.40;;;;;;;3.28;100.00;99552.34;1774045;80;21151;-70
2021/01/08 01:41:13;;;;;;;0.30;0.30;;;;;;;3.30;100.00;99562.89;1774053;80;21625;-69
2021/01/08 01:43:41;;;;;;;0.63;0.63;;;;;;;3.29;100.00;99558.02;1774013;79;20944;-70
2021/01/08 01:46:17;;;;;;;0.60;0.60;;;;;;;3.30;100.00;99564.23;1773989;79;21457;-70
2021/01/08 01:48:45;;;;;;;0.40;0.40;;;;;;;3.29;100.00;99570.05;1747734;80;21032;-70
2021/01/08 01:51:13;;;;;;;0.53;0.53;;;;;;;3.29;100.00;99578.05;1774044;79;22503;-69
2021/01/08 01:53:40;;;;;;;0.57;0.57;;;;;;;3.30;100.00;99581.60;1774074;80;20940;-70
2021/01/08 01:56:09;;;;;;;1.00;1.00;;;;;;;3.32;100.00;99572.95;1773965;80;20975;-69
2021/01/08 01:58:37;;;;;;;1.60;0.50;;;;;;;3.32;100.00;99581.80;1773925;80;21608;-69
2021/01/08 02:01:05;;;;;;;1.40;0.87;;;;;;;3.32;100.00;99585.81;1773903;80;21134;-71
2021/01/08 02:03:53;;;;;;;1.60;0.87;;;;;;;3.30;100.00;99589.11;1773975;80;21256;-69
2021/01/08 02:06:25;;;;;;;0.90;0.70;;;;;;;3.28;100.00;99584.41;1712557;83;20966;-70
2021/01/08 02:08:58;;;;;;;1.40;0.97;;;;;;;3.27;100.00;99592.05;1712661;83;21650;-70
2021/01/08 02:11:28;;;;;;;0.73;0.73;;;;;;;3.25;100.00;99591.34;1712083;83;21041;-70
2021/01/08 02:14:16;;;;;;;0.93;0.80;;;;;;;3.24;100.00;99604.37;1679965;85;20977;-69
2021/01/08 02:16:51;;;;;;;0.73;0.70;;;;;;;3.29;100.00;99595.43;1889930;76;27136;-69
2021/01/08 02:19:42;;;;;;;1.20;1.10;;;;;;;3.23;100.00;99600.83;1822858;77;20998;-69
2021/01/08 02:22:18;;;;;;;0.90;0.90;;;;;;;3.23;100.00;99599.99;1860852;77;21199;-69
2021/01/08 02:24:57;;;;;;;0.63;0.63;;;;;;;3.21;100.00;99604.63;1763676;81;20992;-70
2021/01/08 02:27:26;;;;;;;2.30;0.70;;;;;;;3.19;100.00;99602.59;1757006;81;21035;-69
2021/01/08 02:29:53;;;;;;;1.17;1.07;;;;;;;3.19;100.00;99599.91;1738705;81;21055;-71
2021/01/08 02:32:21;;;;;;;1.03;1.00;;;;;;;3.20;100.00;99608.27;1758394;81;21004;-70
2021/01/08 02:34:51;;;;;;;0.90;0.90;;;;;;;3.19;100.00;99609.27;1763735;81;21651;-68
2021/01/08 02:37:19;;;;;;;0.67;0.67;;;;;;;3.20;100.00;99615.78;1758411;81;21039;-70
2021/01/08 02:39:48;;;;;;;0.60;0.60;;;;;;;3.18;100.00;99624.92;1763800;81;21026;-70
2021/01/08 02:42:16;;;;;;;0.50;0.50;;;;;;;3.20;100.00;99634.98;1758283;81;21055;-69
2021/01/08 02:44:43;;;;;;;0.77;0.77;;;;;;;3.22;100.00;99635.70;1738826;81;21055;-71
2021/01/08 02:47:11;;;;;;;0.97;0.97;;;;;;;3.21;100.00;99636.19;1758428;81;21458;-69
2021/01/08 02:49:39;;;;;;;1.37;1.27;;;;;;;3.22;100.00;99638.36;1763623;81;21015;-69
2021/01/08 02:52:07;;;;;;;0.77;0.77;;;;;;;3.20;100.00;99637.66;1758379;81;21135;-69
2021/01/08 02:54:35;;;;;;;0.90;0.73;;;;;;;3.19;100.00;99646.17;1738830;81;20958;-70
2021/01/08 02:57:05;;;;;;;1.13;1.10;;;;;;;3.18;100.00;99651.15;1733558;81;21534;-69
2021/01/08 02:59:33;;;;;;;1.43;1.33;;;;;;;3.15;100.00;99640.75;1763759;81;21099;-70
2021/01/08 03:02:00;;;;;;;2.53;1.30;;;;;;;3.15;100.00;99635.87;1784853;79;21000;-69
2021/01/08 03:04:29;;;;;;;0.73;0.73;;;;;;;3.13;100.00;99631.16;1817607;79;21013;-70
2021/01/08 03:06:58;;;;;;;2.33;1.20;;;;;;;3.10;100.00;99637.63;1817534;79;21131;-69
2021/01/08 03:09:26;;;;;;;0.73;0.73;;;;;;;3.03;100.00;99633.80;1751175;79;21004;-69
2021/01/08 03:11:54;;;;;;;1.57;1.33;;;;;;;2.98;100.00;99646.70;1814013;79;21902;-70
2021/01/08 03:14:22;;;;;;;0.83;0.83;;;;;;;2.93;100.00;99637.73;1811650;79;20978;-70
2021/01/08 03:16:50;;;;;;;1.27;1.17;;;;;;;2.87;100.00;99646.75;1788101;80;21542;-69
2021/01/08 03:19:21;;;;;;;2.00;1.13;;;;;;;2.79;100.00;99655.43;1803200;79;21049;-69
2021/01/08 03:21:48;;;;;;;0.73;0.70;;;;;;;2.71;100.00;99653.89;1791459;80;21020;-70
2021/01/08 03:24:16;;;;;;;2.03;1.63;;;;;;;2.65;100.00;99649.92;1803229;79;22353;-70
2021/01/08 03:26:43;;;;;;;1.30;1.20;;;;;;;2.58;100.00;99649.59;1791216;80;21035;-70
2021/01/08 03:29:11;;;;;;;1.80;1.70;;;;;;;2.54;100.00;99660.67;1802728;79;20941;-69
2021/01/08 03:31:39;;;;;;;2.00;1.80;;;;;;;2.48;100.00;99651.36;1790839;80;20980;-69
2021/01/08 03:34:07;;;;;;;1.33;1.23;;;;;;;2.43;100.00;99665.08;1802718;79;21039;-69
2021/01/08 03:36:35;;;;;;;0.97;0.97;;;;;;;2.38;100.00;99659.77;1790848;80;22283;-69
2021/01/08 03:39:03;;;;;;;3.30;1.47;;;;;;;2.34;100.00;99670.32;1802684;79;20923;-69
2021/01/08 03:41:31;;;;;;;1.57;1.37;;;;;;;2.34;100.00;99676.99;1790885;80;21012;-69
2021/01/08 03:43:58;;;;;;;3.57;2.03;;;;;;;2.34;100.00;99678.33;1802766;79;20923;-69
2021/01/08 03:46:26;;;;;;;1.70;1.60;;;;;;;2.34;100.00;99674.32;1792263;79;21113;-69
2021/01/08 03:48:54;;;;;;;0.93;0.93;;;;;;;2.33;100.00;99667.31;1764692;80;21540;-70
2021/01/08 03:51:22;;;;;;;1.30;1.20;;;;;;;2.32;100.00;99670.48;1792961;80;21051;-69
2021/01/08 03:53:50;;;;;;;5.27;1.93;;;;;;;2.34;100.00;99676.99;1791513;80;20993;-70
2021/01/08 03:56:18;;;;;;;1.23;1.13;;;;;;;2.35;100.00;99674.20;1805623;78;21148;-69
2021/01/08 03:58:46;;;;;;;1.60;1.27;;;;;;;2.36;100.00;99665.23;1826317;78;21542;-69
2021/01/08 04:01:14;;;;;;;1.77;1.67;;;;;;;2.36;100.00;99669.23;1826152;78;21033;-70
2021/01/08 04:03:42;;;;;;;2.40;1.90;;;;;;;2.36;100.00;99670.57;1825924;78;20937;-70
2021/01/08 04:06:10;;;;;;;1.33;1.23;;;;;;;2.34;100.00;99671.19;1826117;78;21068;-70
2021/01/08 04:08:38;;;;;;;2.93;1.83;;;;;;;2.32;100.00;99678.48;1826142;78;20933;-68
2021/01/08 04:11:06;;;;;;;1.90;1.80;;;;;;;2.32;100.00;99681.61;1818981;78;20945;-69
2021/01/08 04:13:34;;;;;;;2.17;1.70;;;;;;;2.30;100.00;99678.23;1790856;80;21805;-68
2021/01/08 04:16:03;;;;;;;3.50;1.80;;;;;;;2.27;100.00;99680.18;1790694;80;20984;-70
2021/01/08 04:18:31;;;;;;;1.70;1.60;;;;;;;2.25;100.00;99689.30;1802600;79;21022;-69
2021/01/08 04:20:59;;;;;;;1.50;1.40;;;;;;;2.24;100.00;99703.59;1777835;80;20930;-70
2021/01/08 04:23:26;;;;;;;2.10;1.50;;;;;;;2.25;100.00;99705.31;1800794;79;21553;-70
2021/01/08 04:25:54;;;;;;;2.80;1.73;;;;;;;2.23;100.00;99714.77;1777729;80;21013;-69
2021/01/08 04:28:22;;;;;;;2.37;2.03;;;;;;;2.23;100.00;99721.90;1803170;79;21030;-70
2021/01/08 04:30:50;;;;;;;1.90;1.80;;;;;;;2.19;100.00;99719.97;1777768;80;20941;-69
2021/01/08 04:33:18;;;;;;;1.47;1.37;;;;;;;2.19;100.00;99725.30;1800600;79;21022;-69
2021/01/08 04:35:45;;;;;;;1.70;1.60;;;;;;;2.16;100.00;99730.91;1777875;80;21511;-71
2021/01/08 04:38:13;;;;;;;1.87;1.77;;;;;;;2.15;100.00;99732.37;1800629;79;22666;-70
2021/01/08 04:40:41;;;;;;;2.53;1.80;;;;;;;2.14;100.00;99726.66;1777837;80;20941;-70
2021/01/08 04:43:08;;;;;;;2.13;1.93;;;;;;;2.11;100.00;99732.23;1803230;79;20946;-70
2021/01/08 04:45:36;;;;;;;2.73;2.30;;;;;;;2.09;100.00;99729.72;1782340;80;21024;-70
2021/01/08 04:48:04;;;;;;;1.60;1.50;;;;;;;2.07;100.00;99736.97;1825968;78;21570;-69
2021/01/08 04:50:32;;;;;;;1.53;1.43;;;;;;;2.04;100.00;99730.58;1793396;80;21381;-70
2021/01/08 04:53:00;;;;;;;1.87;1.77;;;;;;;2.02;100.00;99733.83;1825709;78;20986;-69
2021/01/08 04:55:28;;;;;;;2.00;1.90;;;;;;;1.98;100.00;99728.39;1793358;80;20890;-69
2021/01/08 04:57:56;;;;;;;3.33;2.10;;;;;;;1.88;100.00;99746.46;1798391;78;21001;-70
2021/01/08 05:00:24;;;;;;;1.83;1.73;;;;;;;1.82;100.00;99748.27;1776218;80;21591;-68
2021/01/08 05:02:52;;;;;;;1.97;1.73;;;;;;;1.74;100.00;99756.55;1798681;78;22293;-70
2021/01/08 05:05:20;;;;;;;2.80;1.87;;;;;;;1.66;100.00;99755.80;1793340;80;21005;-70
2021/01/08 05:07:48;;;;;;;3.03;1.63;;;;;;;1.57;100.00;99766.69;1772638;78;20996;-71
2021/01/08 05:10:16;;;;;;;4.73;1.40;;;;;;;1.49;100.00;99775.30;1825817;78;21009;-70
2021/01/08 05:12:44;;;;;;;2.20;2.00;;;;;;;1.41;100.00;99776.36;1809523;78;21030;-71
2021/01/08 05:15:13;;;;;;;2.20;1.43;;;;;;;1.30;100.00;99774.53;1807115;79;21375;-70
2021/01/08 05:17:43;;;;;;;2.10;1.87;;;;;;;1.22;100.00;99782.28;1807026;79;20984;-71
2021/01/08 05:20:11;;;;;;;2.77;1.67;;;;;;;1.16;100.00;99788.55;1808019;78;20975;-69
2021/01/08 05:22:39;;;;;;;2.80;2.03;;;;;;;1.08;100.00;99797.98;1828438;78;20959;-69
2021/01/08 05:25:09;;;;;;;1.77;1.67;;;;;;;1.00;100.00;99796.37;1828512;78;22262;-69
2021/01/08 05:27:37;;;;;;;1.57;1.47;;;;;;;0.94;100.00;99796.84;1828562;78;22246;-70
2021/01/08 05:30:23;;;;;;;1.70;1.60;;;;;;;0.88;100.00;99800.79;1828419;78;20959;-70
2021/01/08 05:33:02;;;;;;;2.70;2.07;;;;;;;0.82;100.00;99818.56;1828410;78;20946;-70
2021/01/08 05:35:32;;;;;;;1.60;1.50;;;;;;;0.77;100.00;99814.55;1823530;78;21037;-69
2021/01/08 05:38:08;;;;;;;1.33;1.33;;;;;;;0.69;100.00;99812.44;1799243;78;20872;-70
2021/01/08 05:40:41;;;;;;;2.20;1.60;;;;;;;0.61;100.00;99826.32;1828557;78;21560;-69
2021/01/08 05:43:09;;;;;;;2.30;2.10;;;;;;;0.56;100.00;99820.48;1828376;78;20955;-69
2021/01/08 05:45:37;;;;;;;3.73;2.40;;;;;;;0.50;100.00;99823.12;1821577;78;20950;-69
2021/01/08 05:48:06;;;;;;;1.50;1.40;;;;;;;0.45;100.00;99817.28;1806220;79;21038;-70
2021/01/08 05:50:34;;;;;;;0.83;0.80;;;;;;;0.41;100.00;99824.25;1806367;79;21567;-70
2021/01/08 05:53:08;;;;;;;1.63;1.50;;;;;;;0.38;100.00;99825.34;1806489;79;21475;-69
2021/01/08 05:55:39;;;;;;;1.60;1.50;;;;;;;0.35;100.00;99840.19;1806257;79;21025;-70
2021/01/08 05:58:20;;;;;;;2.43;2.07;;;;;;;0.31;100.00;99840.89;1738739;82;21014;-69
2021/01/08 06:01:03;;;;;;;3.43;2.10;;;;;;;0.27;100.00;99855.86;1738801;82;20990;-70
2021/01/08 06:03:31;;;;;;;1.00;1.00;;;;;;;0.22;100.00;99859.33;1739091;82;21056;-69
2021/01/08 06:06:01;;;;;;;1.50;1.40;;;;;;;0.15;100.00;99871.71;1738848;82;21827;-69
2021/01/08 06:08:39;;;;;;;1.53;1.43;;;;;;;0.11;100.00;99876.05;1738837;82;21124;-69
2021/01/08 06:11:20;;;;;;;4.93;2.80;;;;;;;0.08;100.00;99875.77;1729195;82;21163;-70
2021/01/08 06:13:53;;;;;;;0.73;0.73;;;;;;;0.04;100.00;99888.07;1691145;84;21048;-70
2021/01/08 06:16:21;;;;;;;1.27;1.17;;;;;;;0.04;100.00;99884.08;1693301;84;21183;-71
2021/01/08 06:18:51;;;;;;;1.90;1.70;;;;;;;0.03;100.00;99889.86;1693046;84;21217;-70
2021/01/08 06:21:39;;;;;;;1.30;1.30;;;;;;;0.09;100.00;99890.77;1852013;76;25257;-70
2021/01/08 06:24:26;;;;;;;1.93;1.70;;;;;;;0.05;100.00;99889.75;1782706;80;21015;-70
2021/01/08 06:26:54;;;;;;;1.97;1.77;;;;;;;0.02;100.00;99879.33;1772030;80;22289;-70
2021/01/08 06:29:23;;;;;;;2.70;2.17;;;;;;;0.04;100.00;99890.73;1771908;81;21037;-70
2021/01/08 06:31:54;;;;;;;3.17;1.93;;;;;;;0.04;100.00;99887.58;1771959;81;21005;-71
2021/01/08 06:34:28;;;;;;;5.60;2.60;;;;;;;0.02;100.00;99902.80;1772009;81;21571;-71
2021/01/08 06:37:08;;;;;;;2.90;1.67;;;;;;;0.00;100.00;99888.77;1772013;81;20977;-71
2021/01/08 06:42:27;;;;;;;5.77;2.30;;;;;;;0.05;100.00;99908.36;1890064;76;25520;-70
2021/01/08 06:44:55;;;;;;;2.77;2.27;;;;;;;0.05;100.00;99903.05;1860870;77;20979;-71
2021/01/08 06:47:30;;;;;;;2.13;1.73;;;;;;;0.07;100.00;99907.77;1860785;77;21355;-70
2021/01/08 06:49:58;;;;;;;4.87;2.87;;;;;;;0.10;100.00;99911.06;1828385;77;21444;-72
2021/01/08 06:52:26;;;;;;;1.37;1.23;;;;;;;0.12;100.00;99917.13;1828030;77;20978;-70
2021/01/08 06:54:55;;;;;;;2.63;2.43;;;;;;;0.17;100.00;99909.67;1801735;77;21535;-70
2021/01/08 06:57:23;;;;;;;2.80;2.50;;;;;;;0.20;100.00;99921.92;1860863;77;20971;-70
2021/01/08 06:59:55;;;;;;;3.27;2.73;;;;;;;0.24;100.00;99924.73;1860896;77;21653;-71
2021/01/08 07:02:32;;;;;;;3.70;2.40;;;;;;;0.29;100.00;99918.61;1845110;76;25290;-69
2021/01/08 07:05:00;;;;;;;2.67;2.23;;;;;;;0.26;100.00;99929.45;1815519;79;21020;-72
2021/01/08 07:07:29;;;;;;;4.43;3.50;;;;;;;0.29;100.00;99944.36;1815404;79;21194;-70
2021/01/08 07:09:57;;;;;;;5.40;2.80;;;;;;;0.28;100.00;99953.29;1815646;79;21510;-70
2021/01/08 07:12:26;;;;;;;3.73;2.37;;;;;;;0.31;100.00;99957.07;1784720;79;20933;-71
2021/01/08 07:14:54;;;;;;;1.83;1.57;;;;;;;0.31;100.00;99954.41;1815489;79;21577;-71
2021/01/08 07:17:32;;;;;;;2.10;2.00;;;;;;;0.31;100.00;99966.38;1815414;79;20913;-70
2021/01/08 07:20:01;;;;;;;2.50;2.13;;;;;;;0.33;100.00;99967.96;1813977;79;21364;-70
2021/01/08 07:22:41;;;;;;;2.40;1.70;;;;;;;0.32;100.00;99984.90;1813501;79;20915;-70
2021/01/08 07:25:13;;;;;;;4.23;2.43;;;;;;;0.33;100.00;99991.90;1718103;82;21496;-71
2021/01/08 07:27:42;;;;;;;2.80;2.37;;;;;;;0.37;100.00;99991.20;1769901;81;21522;-72
2021/01/08 07:30:13;;;;;;;2.97;2.03;;;;;;;0.39;100.00;99999.95;1769798;81;21021;-70
2021/01/08 07:32:46;;;;;;;2.13;1.43;;;;;;;0.38;100.00;99992.92;1769888;81;21436;-71
2021/01/08 07:35:25;;;;;;;2.27;2.07;;;;;;;0.39;100.00;99980.01;1769735;81;21045;-70
2021/01/08 07:40:51;;;;;;;3.00;2.70;;;;;;;0.48;100.00;99980.69;1648200;85;21071;-73
2021/01/08 07:43:35;;;;;;;6.78;3.90;;;;;;;0.54;100.00;99974.07;1828988;76;27829;-71
2021/01/08 07:46:05;;;;;;;4.53;2.53;;;;;;;0.59;100.00;99974.60;1814457;78;20934;-72
2021/01/08 07:48:40;;;;;;;3.73;2.83;;;;;;;0.68;100.00;99971.77;1813646;78;22288;-73
2021/01/08 07:51:13;;;;;;;3.50;2.20;;;;;;;0.69;100.00;99970.79;1813654;79;21531;-71
2021/01/08 07:53:47;;;;;;;4.72;2.83;;;;;;;0.73;100.00;99971.80;1813700;79;21037;-60
2021/01/08 07:56:24;;;;;;;2.10;2.00;;;;;;;0.76;100.00;99966.73;1747108;81;21022;-71
2021/01/08 07:59:03;;;;;;;2.67;2.03;;;;;;;0.83;100.00;99969.31;1769943;81;21459;-69
2021/01/08 08:01:34;;;;;;;2.63;2.33;;;;;;;0.91;100.00;99978.94;1769682;81;21811;-69
2021/01/08 08:04:10;;;;;;;2.70;2.00;;;;;;;1.06;100.00;99984.98;1845118;76;26162;-70
2021/01/08 08:06:41;;;;;;;5.17;2.73;;;;;;;1.07;100.00;99985.83;1815121;78;20913;-69
2021/01/08 08:09:14;;;;;;;2.53;2.33;;;;;;;1.10;100.00;99990.45;1815323;79;21193;-71
2021/01/08 08:11:42;;;;;;;5.62;2.92;;;;;;;1.15;100.00;99987.44;1806927;78;21051;-71
2021/01/08 08:14:17;;;;;;;3.60;2.60;;;;;;;1.23;100.00;99986.41;1793193;77;21003;-70
2021/01/08 08:16:45;;;;;;;3.77;2.70;;;;;;;1.29;100.00;99987.30;1722517;82;21612;-69
2021/01/08 08:19:14;;;;;;;3.87;3.10;;;;;;;1.34;100.00;99990.94;1748802;82;21556;-69
2021/01/08 08:21:49;;;;;;;2.37;2.13;;;;;;;1.36;100.00;99990.34;1740739;82;21668;-68
2021/01/08 08:24:17;;;;;;;3.07;2.23;;;;;;;1.41;100.00;99987.34;1740838;82;21016;-73
2021/01/08 08:26:47;;;;;;;6.67;3.30;;;;;;;1.47;100.00;99997.53;1736783;82;21004;-71
2021/01/08 08:29:17;;;;;;;4.10;2.60;;;;;;;1.51;100.00;99997.69;1743269;81;21028;-70
2021/01/08 08:31:51;;;;;;;6.43;3.60;;;;;;;1.54;100.00;99992.61;1769174;81;21060;-71
2021/01/08 08:34:30;;;;;;;;;;;;;;;1.56;100.00;99994.20;1772672;81;21201;-69
2021/01/08 08:37:09;;;;;;;7.77;4.03;;;;;;;1.59;100.00;99990.45;1741485;82;20467;-69
2021/01/08 08:39:37;;;;;;;15.03;5.20;;;;;;;1.61;100.00;99999.17;1740753;82;21020;-72
2021/01/08 08:42:05;;;;;;;9.97;4.80;;;;;;;1.60;100.00;99994.34;1740077;82;21153;-71
2021/01/08 08:44:42;;;;;;;16.63;5.57;;;;;;;1.63;100.00;100002.57;1740879;82;20985;-72
2021/01/08 08:47:11;;;;;;;7.60;3.43;;;;;;;1.68;100.00;99996.41;1768080;81;22236;-72
2021/01/08 08:49:41;;;;;;;9.47;4.53;;;;;;;1.71;100.00;99997.53;1769048;81;21021;-71
2021/01/08 08:52:09;;;;;;;7.47;3.60;;;;;;;1.70;100.00;99989.18;1758065;81;20948;-72
2021/01/08 08:54:38;;;;;;;5.23;2.70;;;;;;;1.68;100.00;99983.96;1735669;82;21012;-70
2021/01/08 08:57:09;;;;;;;3.27;2.50;;;;;;;1.68;100.00;99985.75;1741099;82;20996;-71
2021/01/08 08:59:42;;;;;;;8.20;3.17;;;;;;;1.70;100.00;99980.69;1758691;81;21141;-71
2021/01/08 09:02:12;;;;;;;10.70;4.17;;;;;;;1.71;100.00;99975.70;1756767;81;21551;-71
2021/01/08 09:04:59;;;;;;;8.20;3.73;;;;;;;1.76;100.00;99974.04;1762947;80;21028;-72
2021/01/08 09:07:40;;;;;;;8.73;4.50;;;;;;;1.80;100.00;99976.83;1785563;80;21013;-71
2021/01/08 09:10:25;;;;;;;9.30;4.22;;;;;;;1.89;100.00;99976.62;1806354;76;27986;-72
2021/01/08 09:13:06;;;;;;;4.53;2.63;;;;;;;1.91;100.00;99978.67;1735158;80;21020;-71
2021/01/08 09:15:36;;;;;;;5.30;3.37;;;;;;;1.95;100.00;99974.83;1668537;84;21216;-72
2021/01/08 09:18:30;;;;;;;9.73;4.90;;;;;;;1.97;100.00;99978.72;1722086;83;21665;-70
2021/01/08 09:21:20;;;;;;;5.05;3.17;;;;;;;1.99;100.00;99984.78;1726146;81;21031;-71
2021/01/08 09:23:51;;;;;;;4.23;2.63;;;;;;;1.97;100.00;99981.39;1729321;82;21158;-73
2021/01/08 09:26:19;;;;;;;4.00;2.80;;;;;;;1.92;100.00;99976.88;1729340;83;21079;-70
2021/01/08 09:28:52;;;;;;;3.17;2.60;;;;;;;1.89;100.00;99965.48;1729333;83;21335;-70
2021/01/08 09:31:21;;;;;;;4.15;2.65;;;;;;;1.87;100.00;99968.73;1723161;83;21542;-71
2021/01/08 09:33:59;;;;;;;6.33;2.90;;;;;;;1.86;100.00;99974.17;1723540;83;21024;-69
2021/01/08 09:36:33;;;;;;;7.57;3.67;;;;;;;1.89;100.00;99960.61;1730567;81;20969;-69
2021/01/08 09:39:10;;;;;;;11.90;4.40;;;;;;;1.94;100.00;99962.95;1889729;76;27264;-70
2021/01/08 09:41:39;;;;;;;12.67;5.87;;;;;;;1.93;100.00;99962.56;1860922;77;21093;-68
2021/01/08 09:44:09;;;;;;;7.33;3.70;;;;;;;2.00;100.00;99961.13;1861585;76;21193;-69
2021/01/08 09:47:00;;;;;;;6.10;4.40;;;;;;;2.04;100.00;99957.27;1799419;79;21559;-69
2021/01/08 09:49:51;;;;;;;6.27;3.77;;;;;;;2.08;100.00;99953.39;1819973;78;21041;-69
2021/01/08 09:52:29;;;;;;;5.40;3.00;;;;;;;2.11;100.00;99957.63;1796344;79;21009;-70
2021/01/08 09:54:59;;;;;;;8.73;4.63;;;;;;;2.13;100.00;99958.38;1813749;78;21001;-70
2021/01/08 09:57:29;;;;;;;14.93;6.30;;;;;;;2.13;100.00;99950.38;1808183;79;22281;-69
2021/01/08 09:59:59;;;;;;;17.13;6.60;;;;;;;2.12;100.00;99953.51;1822478;78;21065;-70
2021/01/08 10:02:42;;;;;;;9.07;5.10;;;;;;;2.14;100.00;99950.23;1822362;78;20977;-72
2021/01/08 10:05:29;;;;;;;5.72;3.90;;;;;;;2.17;100.00;99942.49;1822741;78;21033;-71
2021/01/08 10:07:58;;;;;;;5.77;3.67;;;;;;;2.22;100.00;99938.48;1806850;79;20926;-70
2021/01/08 10:10:35;;;;;;;7.20;3.23;;;;;;;2.27;100.00;99934.98;1822691;78;22317;-71
2021/01/08 10:13:07;;;;;;;9.33;4.23;;;;;;;2.35;100.00;99938.37;1759221;81;21022;-72
2021/01/08 10:15:43;;;;;;;5.57;3.10;;;;;;;2.43;100.00;99937.29;1786017;80;21076;-72
2021/01/08 10:18:17;;;;;;;7.47;3.47;;;;;;;2.47;100.00;99940.07;1640460;86;21631;-73
2021/01/08 10:20:49;;;;;;;4.27;2.97;;;;;;;2.49;100.00;99935.95;1640429;87;21006;-70
2021/01/08 10:23:22;;;;;;;6.27;4.03;;;;;;;2.50;100.00;99934.99;1640592;87;21225;-70
2021/01/08 10:25:52;;;;;;;;;;;;;;;2.56;100.00;99937.16;1704297;84;21074;-72
2021/01/08 10:28:28;;;;;;;14.03;6.00;;;;;;;2.69;100.00;99935.69;1829293;76;27819;-70
2021/01/08 10:30:56;;;;;;;14.73;4.90;;;;;;;2.78;100.00;99934.97;1815326;77;20924;-73
2021/01/08 10:33:25;;;;;;;7.90;4.23;;;;;;;2.98;100.00;99943.19;1815274;79;21173;-73
2021/01/08 10:35:55;;;;;;;8.27;4.30;;;;;;;3.08;100.00;99940.59;1815117;79;21609;-71
2021/01/08 10:38:23;;;;;;;10.60;4.57;;;;;;;3.09;100.00;99941.81;1814953;79;21019;-72
2021/01/08 10:40:52;;;;;;;8.53;4.27;;;;;;;3.06;100.00;99931.38;1815201;77;21004;-72
2021/01/08 10:43:20;;;;;;;9.37;4.20;;;;;;;3.03;100.00;99929.81;1809043;79;21649;-71
2021/01/08 10:45:48;;;;;;;10.23;4.47;;;;;;;3.01;100.00;99926.89;1806977;78;21347;-71
2021/01/08 10:48:16;;;;;;;6.10;3.70;;;;;;;2.95;100.00;99924.73;1815069;79;20988;-72
2021/01/08 10:50:46;;;;;;;4.83;3.33;;;;;;;2.92;100.00;99923.64;1784186;79;21011;-71
2021/01/08 10:53:14;;;;;;;8.27;4.23;;;;;;;2.86;100.00;99916.98;1784680;79;21024;-70
2021/01/08 10:55:47;;;;;;;9.87;4.40;;;;;;;2.84;100.00;99913.09;1815213;78;20968;-73
2021/01/08 10:58:17;;;;;;;8.20;3.87;;;;;;;2.87;100.00;99900.46;1815227;78;21359;-71
2021/01/08 11:00:46;;;;;;;8.47;4.10;;;;;;;2.88;100.00;99895.49;1815162;79;21055;-71
2021/01/08 11:03:14;;;;;;;7.60;4.27;;;;;;;2.85;100.00;99896.11;1815150;77;21011;-71
2021/01/08 11:05:42;;;;;;;6.83;3.77;;;;;;;2.88;100.00;99890.16;1815069;79;20973;-72
2021/01/08 11:08:10;;;;;;;5.37;3.53;;;;;;;2.85;100.00;99897.45;1815079;79;21197;-73
2021/01/08 11:10:39;;;;;;;6.53;4.10;;;;;;;2.85;100.00;99897.91;1814883;78;21130;-71
2021/01/08 11:13:06;;;;;;;7.90;3.77;;;;;;;2.86;100.00;99899.62;1783033;80;21080;-72
2021/01/08 11:15:35;;;;;;;8.73;4.10;;;;;;;2.87;100.00;99896.45;1782962;80;21526;-72
2021/01/08 11:18:04;;;;;;;10.57;4.73;;;;;;;2.85;100.00;99904.13;1782906;80;21050;-74
2021/01/08 11:20:31;;;;;;;8.03;3.90;;;;;;;2.92;100.00;99897.80;1783123;80;21550;-71
2021/01/08 11:23:04;;;;;;;9.63;4.30;;;;;;;3.03;100.00;99900.92;1783235;80;22034;-72
2021/01/08 11:25:32;;;;;;;5.93;3.97;;;;;;;3.08;100.00;99898.73;1783001;80;21606;-72
2021/01/08 11:28:00;;;;;;;6.40;3.13;;;;;;;3.11;100.00;99901.13;1776036;80;21043;-71
2021/01/08 11:30:28;;;;;;;8.20;4.13;;;;;;;3.15;100.00;99891.03;1772893;81;21032;-72
2021/01/08 11:32:55;;;;;;;6.03;4.00;;;;;;;3.08;100.00;99886.70;1772860;81;20945;-72
2021/01/08 11:35:24;;;;;;;8.90;4.33;;;;;;;3.00;100.00;99896.66;1772869;81;21374;-72
2021/01/08 11:37:53;;;;;;;8.30;3.63;;;;;;;2.96;100.00;99900.57;1772642;81;21004;-71
2021/01/08 11:40:21;;;;;;;5.30;3.10;;;;;;;2.96;100.00;99903.24;1772220;81;21044;-72
2021/01/08 11:42:49;;;;;;;5.00;2.87;;;;;;;2.98;100.00;99905.30;1772257;81;21091;-71
2021/01/08 11:45:17;;;;;;;9.70;3.63;;;;;;;3.03;100.00;99912.95;1777467;78;20925;-71
2021/01/08 11:47:45;;;;;;;5.93;3.23;;;;;;;3.10;100.00;99916.81;1804551;78;22340;-71
2021/01/08 11:50:14;;;;;;;7.57;3.23;;;;;;;3.16;100.00;99910.11;1804522;79;20983;-71
2021/01/08 11:52:42;;;;;;;5.30;3.10;;;;;;;3.14;100.00;99900.03;1804626;78;21039;-73
2021/01/08 11:55:12;;;;;;;6.37;3.50;;;;;;;3.11;100.00;99904.29;1800314;79;20989;-71
2021/01/08 11:57:40;;;;;;;9.77;3.83;;;;;;;3.06;100.00;99901.98;1804804;79;21026;-73